Time;durP1;ratioP1;P1;durP2;ratioP2;P2;SDS_P1;SDS_P2;PMS_P1;PMS_P2;Temp;Humidity;BMP_temperature;BMP_pressure;BME280_temperature;BME280_humidity;BME280_pressure;Samples;Min_cycle;Max_cycle;Signal;HPM_P1;HPM_P2
2022/11/08 00:01:58;;;;;;;19.87;14.23;;;4.90;99.90;;;;;;5072555;28;20203;-76
2022/11/08 00:04:25;;;;;;;20.63;14.53;;;4.90;99.90;;;;;;5072040;28;20765;-76
2022/11/08 00:15:07;;;;;;;22.60;12.97;;;4.90;99.90;;;;;;5072517;28;20199;-76
2022/11/08 00:17:33;;;;;;;18.43;12.57;;;4.80;99.90;;;;;;5072315;28;20233;-76
2022/11/08 00:20:00;;;;;;;18.67;12.80;;;4.80;99.90;;;;;;5072652;28;20201;-77
2022/11/08 00:22:30;;;;;;;18.90;13.30;;;4.70;99.90;;;;;;5073817;28;20282;-76
2022/11/08 00:24:56;;;;;;;21.13;14.47;;;4.70;99.90;;;;;;5077770;28;20267;-76
2022/11/08 00:27:24;;;;;;;22.50;14.03;;;4.80;99.90;;;;;;5077426;28;20204;-76
2022/11/08 00:29:51;;;;;;;23.83;15.37;;;4.90;99.90;;;;;;5077671;28;20201;-76
2022/11/08 00:32:21;;;;;;;24.70;14.07;;;4.90;99.90;;;;;;5077475;28;20205;-77
2022/11/08 00:34:48;;;;;;;19.47;14.77;;;4.80;99.90;;;;;;5077466;28;20713;-76
2022/11/08 00:37:15;;;;;;;21.30;13.63;;;4.80;99.90;;;;;;5076134;28;20664;-76
2022/11/08 00:39:42;;;;;;;20.30;13.57;;;4.60;99.90;;;;;;5076448;28;20207;-76
2022/11/08 00:42:10;;;;;;;22.87;13.17;;;4.60;99.90;;;;;;5076479;28;20197;-77
2022/11/08 00:44:36;;;;;;;23.17;13.67;;;4.50;99.90;;;;;;5076140;28;20240;-77
2022/11/08 00:47:03;;;;;;;20.33;14.07;;;4.50;99.90;;;;;;5076437;28;20204;-76
2022/11/08 00:49:31;;;;;;;25.00;13.80;;;4.50;99.90;;;;;;5076402;28;20254;-77
2022/11/08 00:51:58;;;;;;;26.97;14.53;;;4.50;99.90;;;;;;5076039;28;20200;-77
2022/11/08 00:54:25;;;;;;;18.70;12.87;;;4.50;99.90;;;;;;5076138;28;20594;-77
2022/11/08 00:56:52;;;;;;;19.53;13.53;;;4.50;99.90;;;;;;5076025;28;20197;-78
2022/11/08 00:59:19;;;;;;;21.77;14.03;;;4.50;99.90;;;;;;5076280;28;20231;-78
2022/11/08 01:01:47;;;;;;;20.93;13.33;;;4.40;99.90;;;;;;5076026;28;20197;-78
2022/11/08 01:04:16;;;;;;;20.70;13.20;;;4.40;99.90;;;;;;5075960;28;20599;-78
2022/11/08 01:06:44;;;;;;;20.37;13.00;;;4.40;99.90;;;;;;5076185;28;20211;-78
2022/11/08 01:09:11;;;;;;;17.53;12.87;;;4.30;99.90;;;;;;5076012;28;20207;-77
2022/11/08 01:11:39;;;;;;;16.40;12.73;;;4.30;99.90;;;;;;5075680;28;20557;-78
2022/11/08 01:14:06;;;;;;;18.50;12.20;;;4.40;99.90;;;;;;5076027;28;20232;-77
2022/11/08 01:16:34;;;;;;;18.97;14.37;;;4.30;99.90;;;;;;5076286;28;20196;-77
2022/11/08 01:19:01;;;;;;;20.77;13.73;;;4.30;99.90;;;;;;5076121;28;20254;-78
2022/11/08 01:21:28;;;;;;;19.00;12.87;;;4.40;99.90;;;;;;5075757;28;20199;-77
2022/11/08 01:23:57;;;;;;;21.20;13.30;;;4.30;99.90;;;;;;5075725;28;20200;-78
2022/11/08 01:26:25;;;;;;;16.37;13.03;;;4.20;99.90;;;;;;5075629;28;20617;-77
2022/11/08 01:28:52;;;;;;;19.70;13.67;;;4.30;99.90;;;;;;5078835;28;20222;-77
2022/11/08 01:31:21;;;;;;;16.47;12.50;;;4.20;99.90;;;;;;5076314;28;20195;-77
2022/11/08 01:33:48;;;;;;;16.77;12.23;;;4.30;99.90;;;;;;5075047;28;20195;-77
2022/11/08 01:36:16;;;;;;;14.33;11.97;;;4.20;99.90;;;;;;5075010;28;20614;-77
2022/11/08 01:38:43;;;;;;;21.60;13.00;;;4.10;99.90;;;;;;5074940;28;20652;-77
2022/11/08 01:41:14;;;;;;;22.33;13.17;;;4.10;99.90;;;;;;5076434;28;20197;-77
2022/11/08 01:43:43;;;;;;;20.73;14.00;;;4.10;99.90;;;;;;5076761;28;20207;-77
2022/11/08 01:46:41;;;;;;;19.80;13.17;;;4.20;99.90;;;;;;5076428;28;20233;-77
2022/11/08 01:49:27;;;;;;;18.70;12.67;;;4.10;99.90;;;;;;5075243;28;20274;-77
2022/11/08 01:51:59;;;;;;;18.50;13.40;;;4.10;99.90;;;;;;5074874;28;20214;-77
2022/11/08 01:54:33;;;;;;;19.07;12.97;;;4.20;99.90;;;;;;5074740;28;20202;-77
2022/11/08 01:57:04;;;;;;;18.73;13.17;;;4.10;99.90;;;;;;5075123;28;20197;-77
2022/11/08 01:59:33;;;;;;;25.43;15.27;;;4.10;99.90;;;;;;5076607;28;20730;-77
2022/11/08 02:01:59;;;;;;;26.63;15.00;;;4.10;99.90;;;;;;5076363;28;20195;-77
2022/11/08 02:04:26;;;;;;;26.17;15.03;;;4.00;99.90;;;;;;5075959;28;20233;-77
2022/11/08 02:06:53;;;;;;;25.27;14.83;;;4.10;99.90;;;;;;5076019;28;20199;-77
2022/11/08 02:09:20;;;;;;;22.40;13.97;;;4.00;99.90;;;;;;5076303;28;20243;-77
2022/11/08 02:11:48;;;;;;;23.87;14.60;;;4.00;99.90;;;;;;5075617;28;20201;-77
2022/11/08 02:14:16;;;;;;;21.10;14.87;;;3.90;99.90;;;;;;5075215;28;20202;-77
2022/11/08 02:16:43;;;;;;;20.60;14.43;;;4.00;99.90;;;;;;5075176;28;20208;-77
2022/11/08 02:19:19;;;;;;;25.67;15.03;;;3.90;99.90;;;;;;5075201;28;20612;-77
2022/11/08 02:21:51;;;;;;;19.87;13.67;;;3.80;99.90;;;;;;5075360;28;20725;-77
2022/11/08 02:24:19;;;;;;;20.50;14.47;;;3.90;99.90;;;;;;5078168;28;20321;-77
2022/11/08 02:26:47;;;;;;;24.33;14.50;;;3.90;99.90;;;;;;5075334;28;20194;-77
2022/11/08 02:29:26;;;;;;;25.97;14.90;;;3.80;99.90;;;;;;5075097;28;20651;-77
2022/11/08 02:31:53;;;;;;;28.17;14.97;;;3.80;99.90;;;;;;5075409;28;20194;-77
2022/11/08 02:34:23;;;;;;;23.20;15.07;;;3.70;99.90;;;;;;5075081;28;20203;-77
2022/11/08 02:36:50;;;;;;;22.30;15.17;;;3.80;99.90;;;;;;5076421;28;20194;-77
2022/11/08 02:39:17;;;;;;;20.67;14.97;;;3.70;99.90;;;;;;5077376;28;20201;-77
2022/11/08 02:41:45;;;;;;;25.50;15.77;;;3.70;99.90;;;;;;5076291;28;20230;-77
2022/11/08 02:44:11;;;;;;;19.07;14.93;;;3.80;99.90;;;;;;5074701;28;20197;-78
2022/11/08 02:46:38;;;;;;;22.10;16.00;;;3.70;99.90;;;;;;5073749;28;20234;-78
2022/11/08 02:49:04;;;;;;;20.73;14.47;;;3.70;99.90;;;;;;5074501;28;20255;-77
2022/11/08 02:51:31;;;;;;;23.10;16.07;;;3.60;99.90;;;;;;5074634;28;20722;-77
2022/11/08 02:54:00;;;;;;;20.23;15.37;;;3.70;99.90;;;;;;5075039;28;20197;-77
2022/11/08 02:56:27;;;;;;;21.60;15.27;;;3.70;99.90;;;;;;5074652;28;20715;-77
2022/11/08 02:58:55;;;;;;;22.17;15.97;;;3.70;99.90;;;;;;5074619;28;20210;-77
2022/11/08 03:01:21;;;;;;;23.23;15.83;;;3.80;99.90;;;;;;5074366;28;20717;-77
2022/11/08 03:03:48;;;;;;;23.73;15.23;;;3.80;99.90;;;;;;5073875;28;20224;-77
2022/11/08 03:06:15;;;;;;;21.40;15.20;;;3.70;99.90;;;;;;5073896;28;20267;-77
2022/11/08 03:08:41;;;;;;;20.87;15.20;;;3.70;99.90;;;;;;5074049;28;20203;-77
2022/11/08 03:11:08;;;;;;;23.63;16.80;;;3.60;99.90;;;;;;5073844;28;20658;-77
2022/11/08 03:13:35;;;;;;;23.13;14.67;;;3.60;99.90;;;;;;5073940;28;20200;-77
2022/11/08 03:16:04;;;;;;;24.10;15.83;;;3.60;99.90;;;;;;5073835;28;20652;-77
2022/11/08 03:18:30;;;;;;;22.57;15.53;;;3.60;99.90;;;;;;5078386;28;20202;-77
2022/11/08 03:20:59;;;;;;;25.80;16.87;;;3.50;99.90;;;;;;5076273;28;20706;-77
2022/11/08 03:23:25;;;;;;;24.33;16.00;;;3.60;99.90;;;;;;5073719;28;20594;-77
2022/11/08 03:25:52;;;;;;;23.83;16.13;;;3.50;99.90;;;;;;5074078;28;20283;-77
2022/11/08 03:28:19;;;;;;;28.57;17.00;;;3.50;99.90;;;;;;5073428;28;20250;-77
2022/11/08 03:30:45;;;;;;;25.43;16.67;;;3.50;99.90;;;;;;5073551;28;20202;-77
2022/11/08 03:33:13;;;;;;;25.57;17.53;;;3.60;99.90;;;;;;5073304;28;20649;-76
2022/11/08 03:35:40;;;;;;;31.07;19.13;;;3.70;99.90;;;;;;5073297;28;20283;-77
2022/11/08 03:38:06;;;;;;;31.53;21.23;;;3.70;99.90;;;;;;5073297;28;20197;-77
2022/11/08 03:40:33;;;;;;;32.03;19.83;;;4.00;99.90;;;;;;5073037;28;20251;-77
2022/11/08 03:43:00;;;;;;;33.83;19.70;;;4.00;99.90;;;;;;5073194;28;20549;-77
2022/11/08 03:45:27;;;;;;;32.30;19.70;;;3.80;99.90;;;;;;5073046;28;20215;-77
2022/11/08 03:47:53;;;;;;;28.60;18.30;;;3.80;99.90;;;;;;5072899;28;20255;-77
2022/11/08 03:50:21;;;;;;;30.43;18.83;;;3.80;99.90;;;;;;5073373;28;20206;-77
2022/11/08 03:52:50;;;;;;;33.80;18.67;;;3.80;99.90;;;;;;5072846;28;20251;-77
2022/11/08 03:55:18;;;;;;;29.13;18.60;;;3.70;99.90;;;;;;5072995;28;20202;-76
2022/11/08 03:57:46;;;;;;;27.50;17.70;;;3.70;99.90;;;;;;5074431;28;20206;-77
2022/11/08 04:00:15;;;;;;;27.53;17.67;;;3.60;99.90;;;;;;5076927;28;20198;-77
2022/11/08 04:02:42;;;;;;;26.57;17.13;;;3.50;99.90;;;;;;5076917;28;20544;-77
2022/11/08 04:05:11;;;;;;;28.07;17.03;;;3.40;99.90;;;;;;5076651;28;20237;-77
2022/11/08 04:07:39;;;;;;;28.87;17.30;;;3.40;99.90;;;;;;5077476;28;20200;-76
2022/11/08 04:10:07;;;;;;;27.80;17.83;;;3.30;99.90;;;;;;5083359;28;20653;-77
2022/11/08 04:15:21;;;;;;;26.70;17.27;;;3.50;99.90;;;;;;5086568;28;20251;-77
2022/11/08 04:23:19;;;;;;;30.23;18.60;;;3.30;99.90;;;;;;5081336;28;20266;-76
2022/11/08 04:25:53;;;;;;;27.83;18.70;;;3.30;99.90;;;;;;5080865;28;20230;-76
2022/11/08 04:28:20;;;;;;;28.73;17.63;;;3.40;99.90;;;;;;5080667;28;20710;-76
2022/11/08 04:30:52;;;;;;;29.33;18.67;;;3.40;99.90;;;;;;5081173;28;20247;-76
2022/11/08 04:33:19;;;;;;;29.80;18.73;;;3.30;99.90;;;;;;5080659;28;20256;-76
2022/11/08 04:35:45;;;;;;;35.73;19.87;;;3.20;99.90;;;;;;5080030;28;20729;-76
2022/11/08 04:38:12;;;;;;;30.93;18.47;;;3.20;99.90;;;;;;5079984;28;20209;-77
2022/11/08 04:40:40;;;;;;;31.33;18.23;;;3.20;99.90;;;;;;5079536;28;20254;-76
2022/11/08 04:43:07;;;;;;;32.03;19.20;;;3.20;99.90;;;;;;5081212;28;20279;-76
2022/11/08 04:45:33;;;;;;;27.93;19.77;;;3.30;99.90;;;;;;5081033;28;20218;-76
2022/11/08 04:48:00;;;;;;;40.47;20.73;;;3.30;99.90;;;;;;5081107;28;20548;-77
2022/11/08 04:50:26;;;;;;;34.13;20.17;;;3.30;99.90;;;;;;5080732;28;20196;-76
2022/11/08 04:52:54;;;;;;;32.20;21.27;;;3.30;99.90;;;;;;5081190;28;20255;-76
2022/11/08 04:55:21;;;;;;;43.30;23.10;;;3.30;99.90;;;;;;5080146;28;20202;-76
2022/11/08 04:57:50;;;;;;;36.43;22.03;;;3.20;99.90;;;;;;5080077;28;20201;-76
2022/11/08 05:00:17;;;;;;;38.67;22.03;;;3.20;99.90;;;;;;5080776;28;20598;-76
2022/11/08 05:02:44;;;;;;;33.93;20.80;;;3.10;99.90;;;;;;5080919;28;20197;-77
2022/11/08 05:05:11;;;;;;;38.20;21.43;;;3.10;99.90;;;;;;5082214;28;20229;-76
2022/11/08 05:07:37;;;;;;;39.27;23.03;;;3.10;99.90;;;;;;5085886;28;20201;-76
2022/11/08 05:10:14;;;;;;;39.57;23.60;;;3.10;99.90;;;;;;5082349;28;20193;-76
2022/11/08 05:12:41;;;;;;;35.80;22.03;;;3.20;99.90;;;;;;5084788;28;20219;-76
2022/11/08 05:15:12;;;;;;;40.50;22.70;;;3.10;99.90;;;;;;5081297;28;20197;-76
2022/11/08 05:17:39;;;;;;;38.47;22.50;;;3.10;99.90;;;;;;5080455;28;20220;-77
2022/11/08 05:25:38;;;;;;;44.97;25.77;;;3.00;99.90;;;;;;5085044;28;20254;-77
2022/11/08 05:28:05;;;;;;;49.13;26.67;;;3.00;99.90;;;;;;5086269;28;20264;-77
2022/11/08 05:30:33;;;;;;;46.23;25.27;;;3.00;99.90;;;;;;5085965;28;20201;-77
2022/11/08 05:33:00;;;;;;;42.73;24.13;;;3.10;99.90;;;;;;5085217;28;20231;-76
2022/11/08 05:35:26;;;;;;;48.63;25.00;;;3.00;99.90;;;;;;5083296;28;20220;-75
2022/11/08 05:37:53;;;;;;;47.27;25.97;;;3.10;99.90;;;;;;5084949;28;20197;-75
2022/11/08 05:40:20;;;;;;;43.53;24.63;;;3.10;99.90;;;;;;5085072;28;20201;-76
2022/11/08 05:42:46;;;;;;;48.37;26.73;;;3.10;99.90;;;;;;5084320;28;20588;-77
2022/11/08 05:45:13;;;;;;;46.30;26.30;;;3.00;99.90;;;;;;5084435;28;20250;-77
2022/11/08 05:47:44;;;;;;;38.57;23.37;;;3.00;99.90;;;;;;5082319;28;20201;-76
2022/11/08 05:50:10;;;;;;;40.17;23.63;;;3.10;99.90;;;;;;5084587;28;20246;-76
2022/11/08 05:52:37;;;;;;;37.30;23.10;;;3.00;99.90;;;;;;5082938;28;20197;-76
2022/11/08 05:55:04;;;;;;;37.43;22.17;;;3.00;99.90;;;;;;5084272;28;20235;-76
2022/11/08 05:57:31;;;;;;;38.60;24.27;;;2.90;99.90;;;;;;5081845;28;20201;-76
2022/11/08 05:59:57;;;;;;;42.63;23.60;;;2.90;99.90;;;;;;5080422;28;20193;-76
2022/11/08 06:02:24;;;;;;;36.70;23.10;;;2.90;99.90;;;;;;5081201;28;20201;-76
2022/11/08 06:04:52;;;;;;;34.33;20.57;;;2.90;99.90;;;;;;5077678;28;20225;-76
2022/11/08 06:07:18;;;;;;;36.37;22.30;;;2.80;99.90;;;;;;5076779;28;20274;-75
2022/11/08 06:09:45;;;;;;;34.17;20.57;;;2.70;99.90;;;;;;5080564;28;20257;-75
2022/11/08 06:12:12;;;;;;;36.73;21.47;;;2.80;99.90;;;;;;5076570;28;20193;-74
2022/11/08 06:14:38;;;;;;;36.13;21.23;;;2.70;99.90;;;;;;5078581;28;20192;-77
2022/11/08 06:17:05;;;;;;;38.23;22.20;;;2.80;99.90;;;;;;5075803;28;20193;-75
2022/11/08 06:19:31;;;;;;;37.93;22.27;;;2.80;99.90;;;;;;5076487;28;20205;-76
2022/11/08 06:22:00;;;;;;;35.53;20.67;;;2.80;99.90;;;;;;5077475;28;20199;-76
2022/11/08 06:24:26;;;;;;;34.13;21.77;;;2.90;99.90;;;;;;5076264;28;20587;-77
2022/11/08 06:26:53;;;;;;;37.93;22.20;;;2.80;99.90;;;;;;5076927;28;20224;-75
2022/11/08 06:29:20;;;;;;;38.13;22.83;;;2.90;99.90;;;;;;5075491;28;20201;-75
2022/11/08 06:31:46;;;;;;;38.33;25.07;;;2.90;99.90;;;;;;5075746;28;20201;-74
2022/11/08 06:34:13;;;;;;;36.60;22.97;;;3.00;99.90;;;;;;5075244;28;20266;-75
2022/11/08 06:36:40;;;;;;;44.03;27.80;;;3.00;99.90;;;;;;5076811;28;20224;-75
2022/11/08 06:39:09;;;;;;;53.90;31.53;;;3.00;99.90;;;;;;5082140;28;20201;-76
2022/11/08 06:41:35;;;;;;;45.93;28.93;;;3.00;99.90;;;;;;5078082;28;20197;-75
2022/11/08 06:44:02;;;;;;;43.53;27.23;;;3.00;99.90;;;;;;5074751;28;20205;-75
2022/11/08 06:46:29;;;;;;;39.00;23.53;;;3.00;99.90;;;;;;5081668;28;20224;-76
2022/11/08 06:48:55;;;;;;;48.90;22.47;;;3.00;99.90;;;;;;5076064;28;20250;-75
2022/11/08 06:51:22;;;;;;;35.73;21.87;;;3.00;99.90;;;;;;5074291;28;20192;-76
2022/11/08 06:53:49;;;;;;;43.10;23.90;;;3.10;99.90;;;;;;5077095;28;20200;-76
2022/11/08 06:56:17;;;;;;;41.83;23.33;;;3.10;99.90;;;;;;5080985;28;20231;-77
2022/11/08 06:58:45;;;;;;;37.37;23.27;;;3.20;99.90;;;;;;5077022;28;20201;-76
2022/11/08 07:01:12;;;;;;;43.60;23.87;;;3.20;99.90;;;;;;5077274;28;20205;-76
2022/11/08 07:03:39;;;;;;;45.90;26.87;;;3.30;99.90;;;;;;5077920;28;20206;-75
2022/11/08 07:06:07;;;;;;;47.00;29.00;;;3.40;99.90;;;;;;5075058;28;20231;-76
2022/11/08 07:08:34;;;;;;;42.60;27.93;;;3.40;99.90;;;;;;5074539;28;20202;-75
2022/11/08 07:11:01;;;;;;;35.87;24.90;;;3.60;99.90;;;;;;5074346;28;20652;-76
2022/11/08 07:13:30;;;;;;;40.90;27.43;;;3.60;99.90;;;;;;5074058;28;20201;-76
2022/11/08 07:15:58;;;;;;;44.30;27.33;;;3.80;99.90;;;;;;5075305;28;20197;-76
2022/11/08 07:18:25;;;;;;;46.53;29.13;;;3.90;99.90;;;;;;5073492;28;20298;-76
2022/11/08 07:20:52;;;;;;;41.47;28.60;;;4.00;99.90;;;;;;5073956;28;20244;-77
2022/11/08 07:23:19;;;;;;;42.80;29.57;;;4.20;99.90;;;;;;5073242;28;20242;-75
2022/11/08 07:25:45;;;;;;;42.77;29.60;;;4.40;99.90;;;;;;5073061;28;20241;-76
2022/11/08 07:28:16;;;;;;;46.20;30.83;;;4.70;99.90;;;;;;5072872;28;20541;-82
2022/11/08 07:30:44;;;;;;;43.27;29.67;;;4.90;99.90;;;;;;5072739;28;20206;-79
2022/11/08 07:33:12;;;;;;;47.93;30.87;;;5.00;99.90;;;;;;5072349;28;20196;-77
2022/11/08 07:35:39;;;;;;;41.30;29.00;;;5.20;99.90;;;;;;5072558;28;20652;-78
2022/11/08 07:38:05;;;;;;;42.53;28.23;;;5.40;99.90;;;;;;5072831;28;20211;-75
2022/11/08 07:40:33;;;;;;;39.67;26.90;;;5.50;99.90;;;;;;5072524;28;20207;-76
2022/11/08 07:43:00;;;;;;;36.70;26.47;;;5.50;99.90;;;;;;5072375;28;20205;-75
2022/11/08 07:45:28;;;;;;;44.17;27.57;;;5.70;99.90;;;;;;5089746;28;20193;-76
2022/11/08 07:47:59;;;;;;;37.90;25.97;;;5.90;99.90;;;;;;5092756;28;20220;-77
2022/11/08 07:50:26;;;;;;;36.80;27.73;;;6.00;99.90;;;;;;5092796;28;20247;-75
2022/11/08 07:52:53;;;;;;;35.30;26.70;;;6.20;99.90;;;;;;5092932;28;20204;-76
2022/11/08 07:55:20;;;;;;;33.43;25.87;;;6.30;99.90;;;;;;5092778;28;20245;-75
2022/11/08 07:57:47;;;;;;;33.83;25.27;;;6.50;99.90;;;;;;5092538;28;20618;-77
2022/11/08 08:00:15;;;;;;;32.63;23.23;;;6.70;99.90;;;;;;5092995;28;20200;-76
2022/11/08 08:02:41;;;;;;;31.30;23.93;;;6.90;99.90;;;;;;5092766;28;20196;-76
2022/11/08 08:05:10;;;;;;;28.47;22.20;;;7.10;99.90;;;;;;5092656;28;20232;-77
2022/11/08 08:07:37;;;;;;;31.80;24.80;;;7.20;99.90;;;;;;5092446;28;20279;-77
2022/11/08 08:10:04;;;;;;;27.57;21.13;;;7.40;99.90;;;;;;5092447;28;20200;-77
2022/11/08 08:12:31;;;;;;;30.57;22.40;;;7.50;99.90;;;;;;5092578;28;20702;-77
2022/11/08 08:14:57;;;;;;;26.20;18.33;;;7.50;99.90;;;;;;5092606;28;20196;-77
2022/11/08 08:17:24;;;;;;;26.37;19.23;;;7.50;99.90;;;;;;5092567;28;20197;-76
2022/11/08 08:19:51;;;;;;;22.77;17.70;;;7.70;99.90;;;;;;5092578;28;20201;-76
2022/11/08 08:22:19;;;;;;;27.00;19.10;;;7.90;99.90;;;;;;5092340;28;20389;-77
2022/11/08 08:24:45;;;;;;;28.80;19.03;;;8.00;99.90;;;;;;5092142;28;20651;-77
2022/11/08 08:27:12;;;;;;;31.67;18.87;;;8.10;99.90;;;;;;5092230;28;20216;-77
2022/11/08 08:29:38;;;;;;;23.83;17.53;;;8.30;99.90;;;;;;5086739;28;20608;-77
2022/11/08 08:32:05;;;;;;;22.30;16.63;;;8.40;99.90;;;;;;5090267;28;20188;-76
2022/11/08 08:34:32;;;;;;;18.27;14.33;;;8.60;99.90;;;;;;5085825;28;20599;-76
2022/11/08 08:36:58;;;;;;;15.00;12.97;;;8.90;99.90;;;;;;5071838;28;20262;-77
2022/11/08 08:39:26;;;;;;;14.30;11.90;;;9.10;99.90;;;;;;5071724;28;20648;-77
2022/11/08 08:41:53;;;;;;;18.43;12.50;;;9.10;99.90;;;;;;5072032;28;20246;-77
2022/11/08 08:44:19;;;;;;;13.53;11.40;;;9.00;99.90;;;;;;5072534;28;20614;-77
2022/11/08 08:46:46;;;;;;;11.57;8.40;;;9.00;99.90;;;;;;5075356;28;20274;-77
2022/11/08 08:49:13;;;;;;;10.23;8.63;;;9.00;99.90;;;;;;5078075;28;20201;-77
2022/11/08 08:51:39;;;;;;;8.97;7.97;;;9.10;99.90;;;;;;5095534;28;20205;-77
2022/11/08 08:54:06;;;;;;;7.43;5.90;;;9.20;99.90;;;;;;5093298;28;20196;-75
2022/11/08 08:56:34;;;;;;;8.10;6.33;;;9.30;99.90;;;;;;5075289;28;20193;-76
2022/11/08 08:59:01;;;;;;;6.53;5.43;;;9.40;99.90;;;;;;5074930;28;20205;-75
2022/11/08 09:01:27;;;;;;;8.33;6.00;;;9.50;99.90;;;;;;5075529;28;20193;-75
2022/11/08 09:03:54;;;;;;;8.47;6.33;;;9.60;99.90;;;;;;5075262;28;20278;-77
2022/11/08 09:06:20;;;;;;;6.70;5.53;;;9.90;99.90;;;;;;5075075;28;20204;-77
2022/11/08 09:08:47;;;;;;;5.93;5.23;;;10.20;99.90;;;;;;5074974;28;20197;-78
2022/11/08 09:11:14;;;;;;;6.97;4.93;;;10.50;99.90;;;;;;5075164;28;20193;-76
2022/11/08 09:13:42;;;;;;;5.73;5.13;;;10.80;99.90;;;;;;5075008;28;20300;-78
2022/11/08 09:16:09;;;;;;;8.00;4.63;;;11.20;99.90;;;;;;5074838;28;20262;-77
2022/11/08 09:18:36;;;;;;;6.87;4.97;;;11.30;99.90;;;;;;5074831;28;20223;-77
2022/11/08 09:21:03;;;;;;;4.97;4.47;;;11.40;99.90;;;;;;5074415;28;20197;-76
2022/11/08 09:23:30;;;;;;;6.20;5.00;;;11.60;99.90;;;;;;5074702;28;20201;-77
2022/11/08 09:25:57;;;;;;;5.87;4.60;;;11.90;99.90;;;;;;5074760;28;20201;-75
2022/11/08 09:28:24;;;;;;;5.70;4.60;;;12.20;99.90;;;;;;5074618;28;20271;-76
2022/11/08 09:30:52;;;;;;;5.55;4.78;;;12.60;99.90;;;;;;5074730;28;20197;-76
2022/11/08 09:33:18;;;;;;;7.18;4.60;;;12.90;99.90;;;;;;5074545;28;20201;-75
2022/11/08 09:35:46;;;;;;;4.75;3.80;;;13.20;99.90;;;;;;5074648;28;20247;-78
2022/11/08 09:38:12;;;;;;;4.63;3.75;;;13.30;99.90;;;;;;5074685;28;20193;-76
2022/11/08 09:40:44;;;;;;;4.20;3.78;;;13.20;99.90;;;;;;5074316;28;20196;-77
2022/11/08 09:43:32;;;;;;;5.72;3.65;;;13.30;99.90;;;;;;5074250;28;20267;-76
2022/11/08 09:46:01;;;;;;;3.45;3.10;;;13.40;99.90;;;;;;5074436;28;20194;-76
2022/11/08 09:48:33;;;;;;;3.60;3.00;;;13.50;99.90;;;;;;5076199;28;20680;-75
2022/11/08 09:51:06;;;;;;;3.83;3.42;;;13.40;99.90;;;;;;5076971;28;20197;-76
2022/11/08 09:53:40;;;;;;;3.90;3.13;;;13.50;99.90;;;;;;5076381;28;20243;-77
2022/11/08 09:56:16;;;;;;;5.32;3.13;;;13.60;99.90;;;;;;5075753;28;20648;-76
2022/11/08 09:58:50;;;;;;;4.78;3.42;;;13.50;99.90;;;;;;5075445;28;20250;-75
2022/11/08 10:01:18;;;;;;;3.43;3.13;;;13.40;99.90;;;;;;5077286;28;20196;-76
2022/11/08 10:03:49;;;;;;;6.83;3.33;;;13.30;99.90;;;;;;5076648;28;20196;-76
2022/11/08 10:06:46;;;;;;;5.07;3.53;;;13.70;99.90;;;;;;5090745;28;20250;-77
2022/11/08 10:09:34;;;;;;;3.78;3.13;;;14.20;99.90;;;;;;5075712;28;20204;-77
2022/11/08 10:12:11;;;;;;;7.93;3.85;;;14.70;99.90;;;;;;5075077;28;20185;-77
2022/11/08 10:14:50;;;;;;;3.90;3.50;;;14.60;99.90;;;;;;5075107;28;20258;-77
2022/11/08 10:17:34;;;;;;;4.13;3.65;;;14.50;99.90;;;;;;5074147;28;20196;-77
2022/11/08 10:20:10;;;;;;;4.40;3.42;;;14.70;99.90;;;;;;5074522;28;20209;-77
2022/11/08 10:22:47;;;;;;;4.40;3.47;;;14.70;99.90;;;;;;5084396;28;20221;-75
2022/11/08 10:25:22;;;;;;;3.63;3.33;;;14.70;99.90;;;;;;5094245;28;20202;-77
2022/11/08 10:27:52;;;;;;;4.22;3.60;;;14.80;99.90;;;;;;5094266;28;20281;-78
2022/11/08 10:30:21;;;;;;;3.63;3.28;;;15.00;99.90;;;;;;5093771;28;20250;-77
2022/11/08 10:32:53;;;;;;;6.72;4.20;;;15.30;99.90;;;;;;5093723;28;20536;-78
2022/11/08 10:35:25;;;;;;;4.70;4.20;;;16.90;99.90;;;;;;5093747;28;20200;-78
2022/11/08 10:37:54;;;;;;;4.57;4.03;;;18.30;99.90;;;;;;5093284;28;20196;-77
2022/11/08 10:40:35;;;;;;;4.88;3.60;;;19.40;99.90;;;;;;5093198;28;20196;-78
2022/11/08 10:43:07;;;;;;;5.40;3.88;;;21.00;99.90;;;;;;5092980;28;20196;-76
2022/11/08 10:45:34;;;;;;;4.13;3.40;;;21.60;99.90;;;;;;5093323;28;20200;-76
2022/11/08 10:48:03;;;;;;;3.78;3.47;;;22.90;99.90;;;;;;5092795;28;20228;-76
2022/11/08 10:50:39;;;;;;;5.65;3.58;;;23.10;98.30;;;;;;5092883;28;20200;-77
2022/11/08 10:53:15;;;;;;;3.85;3.15;;;23.00;94.60;;;;;;5092663;28;20254;-77
2022/11/08 10:55:48;;;;;;;4.10;3.35;;;23.10;93.60;;;;;;5092913;28;20584;-77
2022/11/08 10:58:29;;;;;;;5.07;3.35;;;21.90;93.90;;;;;;5092678;28;20222;-77
2022/11/08 11:01:00;;;;;;;3.78;3.40;;;21.90;93.90;;;;;;5092962;28;20211;-77
2022/11/08 11:03:29;;;;;;;6.50;3.33;;;23.40;93.50;;;;;;5077425;28;20275;-77
2022/11/08 11:05:59;;;;;;;3.92;3.53;;;24.70;92.40;;;;;;5072353;28;20232;-76
2022/11/08 11:08:26;;;;;;;6.32;3.35;;;22.50;90.90;;;;;;5086641;28;20274;-76
2022/11/08 11:10:53;;;;;;;4.40;3.35;;;22.00;91.40;;;;;;5092674;28;20261;-77
2022/11/08 11:13:22;;;;;;;4.05;3.20;;;21.10;92.20;;;;;;5092784;28;20647;-79
2022/11/08 11:15:51;;;;;;;3.15;2.85;;;20.30;93.20;;;;;;5092815;28;20235;-76
2022/11/08 11:18:25;;;;;;;3.50;3.20;;;21.50;93.30;;;;;;5093112;28;20231;-77
2022/11/08 11:21:04;;;;;;;5.00;3.30;;;22.90;91.80;;;;;;5072711;28;20201;-76
2022/11/08 11:23:35;;;;;;;9.82;3.78;;;21.40;92.00;;;;;;5072680;28;20204;-77
2022/11/08 11:26:03;;;;;;;12.55;3.65;;;23.50;90.50;;;;;;5072372;28;20196;-77
2022/11/08 11:28:29;;;;;;;9.68;3.63;;;25.10;87.30;;;;;;5072432;28;20695;-77
2022/11/08 11:31:00;;;;;;;2.63;2.30;;;24.30;84.20;;;;;;5072892;28;20201;-77
2022/11/08 11:33:28;;;;;;;5.38;2.95;;;25.10;84.50;;;;;;5072820;28;20205;-77
2022/11/08 11:35:59;;;;;;;2.85;2.53;;;24.50;83.10;;;;;;5072591;28;20197;-77
2022/11/08 11:38:35;;;;;;;4.13;2.53;;;23.20;82.40;;;;;;5076654;28;20205;-77
2022/11/08 11:41:06;;;;;;;12.30;3.88;;;22.50;83.70;;;;;;5113232;28;20228;-77
2022/11/08 11:43:41;;;;;;;3.83;2.67;;;21.80;84.50;;;;;;5113347;28;20604;-77
2022/11/08 11:46:15;;;;;;;3.50;2.55;;;21.00;86.00;;;;;;5113033;28;20658;-76
2022/11/08 11:48:46;;;;;;;4.60;2.70;;;22.00;86.60;;;;;;5112620;28;20268;-76
2022/11/08 11:51:12;;;;;;;3.42;2.70;;;21.30;86.50;;;;;;5112930;28;20196;-76
2022/11/08 11:53:41;;;;;;;2.63;2.42;;;20.50;86.50;;;;;;5113147;28;20299;-76
2022/11/08 11:56:48;;;;;;;2.95;2.65;;;19.40;89.70;;;;;;5112937;28;20203;-76
2022/11/08 11:59:32;;;;;;;4.63;3.00;;;18.80;91.40;;;;;;5112833;28;20262;-77
2022/11/08 12:02:41;;;;;;;4.60;3.30;;;18.60;91.90;;;;;;5112959;28;20272;-78
2022/11/08 12:05:38;;;;;;;5.35;2.95;;;19.00;92.20;;;;;;5104908;28;20239;-77
2022/11/08 12:08:15;;;;;;;3.90;2.90;;;18.50;92.50;;;;;;5094609;28;20293;-77
2022/11/08 12:10:59;;;;;;;3.72;2.80;;;18.40;92.60;;;;;;5083514;28;20200;-77
2022/11/08 12:13:33;;;;;;;4.68;2.95;;;17.80;93.10;;;;;;5092305;28;20192;-78
2022/11/08 12:16:05;;;;;;;5.72;3.00;;;17.80;93.20;;;;;;5092196;28;20195;-78
2022/11/08 12:18:49;;;;;;;4.57;3.15;;;17.40;93.30;;;;;;5093443;28;20201;-80
2022/11/08 12:21:26;;;;;;;5.45;3.22;;;17.10;94.20;;;;;;5095935;28;20200;-79
2022/11/08 12:24:15;;;;;;;3.70;3.20;;;16.30;95.20;;;;;;5096045;28;20655;-79
2022/11/08 12:26:52;;;;;;;4.65;3.15;;;15.90;96.70;;;;;;5095989;28;20196;-77
2022/11/08 12:29:25;;;;;;;4.28;3.03;;;15.80;97.20;;;;;;5096058;28;20224;-78
2022/11/08 12:32:21;;;;;;;4.20;3.33;;;15.50;97.00;;;;;;5095885;28;20204;-79
2022/11/08 12:35:00;;;;;;;5.33;3.60;;;15.30;98.20;;;;;;5095601;28;20200;-79
2022/11/08 12:37:38;;;;;;;4.03;3.43;;;15.30;99.10;;;;;;5096108;28;20200;-79
2022/11/08 12:40:17;;;;;;;5.57;3.65;;;15.00;99.50;;;;;;5093240;28;20784;-79
2022/11/08 12:43:08;;;;;;;4.60;3.83;;;14.90;99.90;;;;;;5075553;28;20242;-78
2022/11/08 12:45:48;;;;;;;6.27;3.93;;;15.10;99.90;;;;;;5075312;28;20263;-78
2022/11/08 12:48:26;;;;;;;3.73;3.33;;;15.10;99.90;;;;;;5075512;28;20749;-78
2022/11/08 12:51:02;;;;;;;5.73;4.07;;;15.20;99.90;;;;;;5075263;28;20247;-79
2022/11/08 12:54:04;;;;;;;4.63;3.50;;;15.40;99.90;;;;;;5075387;28;20253;-79
2022/11/08 12:56:37;;;;;;;7.60;3.80;;;15.70;99.90;;;;;;5053188;28;20201;-79
2022/11/08 12:59:17;;;;;;;7.13;3.90;;;15.90;99.90;;;;;;5071860;28;20193;-79
2022/11/08 13:01:44;;;;;;;4.88;3.65;;;16.20;99.90;;;;;;5075074;28;20235;-79
2022/11/08 13:04:32;;;;;;;7.00;3.50;;;16.30;99.90;;;;;;5074941;28;20232;-79
2022/11/08 13:07:07;;;;;;;3.97;3.55;;;16.70;99.90;;;;;;5075088;28;20670;-81
2022/11/08 13:09:43;;;;;;;3.83;3.45;;;19.20;98.40;;;;;;5075454;28;20224;-79
2022/11/08 13:12:22;;;;;;;6.07;3.40;;;24.40;92.80;;;;;;5075003;28;20200;-80
2022/11/08 13:14:50;;;;;;;4.47;3.05;;;27.40;80.00;;;;;;5075106;28;20189;-79
2022/11/08 13:17:21;;;;;;;3.60;3.30;;;29.00;72.00;;;;;;5075284;28;20197;-80